Palpala, Argentina
Current Conditions -  °F | °C
As of 3:00 PM on Monday 20 Oct 2014 (Local Time) from SASJ Reporting Station
Overcast Overcast  
Wind Chill: 19°   Ceiling: 900
Heat Index: 19°   Visibility: 6mi
Dew Point: 17°   Wind: 6mph
Humidity: 88%   Direction: 110°ESE
Pressure: 30.15"   Gusts: NA
Location:  24.25°S, 65.2°W
Report Text: SASJ 201800Z 11005KT 9000 BKN009 BKN013OVC100 19/17 Q1021
Loading
Personal Weather Stations






























Interactive Weather Map
Tropical Storm Tracking
New forecast layout! Learn more

10-Day Weather Forecast

Advertisements
Track Severe Weather on mobile